KNQA/NQA METAR and TAF weather

Enter ICAO airport designator
Station Type Date Time Source
KNQA METAR 2019/10/23 19:50 UTC NOAA

KNQA 231950Z 19008KT 10SM CLR 22/03 A3011


Station Type Date Time Source
KNQA Decoded METAR 2019/10/23 19:50 UTC NOAA

Millington, Millington Municipal Airport, TN, United States (KNQA) 35-21-24N 089-52-13W
Oct 23, 2019 - 03:50 PM EDT / 2019.10.23 1950 UTC
Wind: from the S (190 degrees) at 9 MPH (8 KT):0
Visibility: 10 mile(s):0
Sky conditions: clear
Temperature: 71 F (22 C)
Dew Point: 37 F (3 C)
Relative Humidity: 28%
Pressure (altimeter): 30.11 in. Hg (1019 hPa)
ob: KNQA 231950Z 19008KT 10SM CLR 22/03 A3011
cycle: 20

Station Type Date Time Source
KNQA TAF UTC NOAA

Error!

Example: see airport list